sensor_id;sensor_type;location;lat;lon;timestamp;P1;durP1;ratioP1;P2;durP2;ratioP2
7181;SDS011;3632;42.724;23.298;2023-04-24T00:02:24;5.20;;;3.87;;
7181;SDS011;3632;42.724;23.298;2023-04-24T00:04:51;6.07;;;3.93;;
7181;SDS011;3632;42.724;23.298;2023-04-24T00:07:19;7.00;;;4.40;;
7181;SDS011;3632;42.724;23.298;2023-04-24T00:09:46;5.63;;;4.50;;
7181;SDS011;3632;42.724;23.298;2023-04-24T00:12:13;9.80;;;4.67;;
7181;SDS011;3632;42.724;23.298;2023-04-24T00:14:40;7.73;;;4.03;;
7181;SDS011;3632;42.724;23.298;2023-04-24T00:17:06;4.33;;;3.70;;
7181;SDS011;3632;42.724;23.298;2023-04-24T00:19:33;6.50;;;4.30;;
7181;SDS011;3632;42.724;23.298;2023-04-24T00:22:00;7.20;;;4.87;;
7181;SDS011;3632;42.724;23.298;2023-04-24T00:24:29;7.27;;;4.30;;
7181;SDS011;3632;42.724;23.298;2023-04-24T00:26:56;7.47;;;4.67;;
7181;SDS011;3632;42.724;23.298;2023-04-24T00:29:23;7.70;;;4.60;;
7181;SDS011;3632;42.724;23.298;2023-04-24T00:31:49;21.10;;;8.50;;
7181;SDS011;3632;42.724;23.298;2023-04-24T00:34:16;12.63;;;7.60;;
7181;SDS011;3632;42.724;23.298;2023-04-24T00:36:43;15.43;;;7.43;;
7181;SDS011;3632;42.724;23.298;2023-04-24T00:39:10;12.27;;;6.30;;
7181;SDS011;3632;42.724;23.298;2023-04-24T00:41:38;9.80;;;5.73;;
7181;SDS011;3632;42.724;23.298;2023-04-24T00:44:05;9.90;;;5.27;;
7181;SDS011;3632;42.724;23.298;2023-04-24T00:46:32;12.50;;;5.70;;
7181;SDS011;3632;42.724;23.298;2023-04-24T00:48:59;8.23;;;5.37;;
7181;SDS011;3632;42.724;23.298;2023-04-24T00:51:25;10.13;;;5.67;;
7181;SDS011;3632;42.724;23.298;2023-04-24T00:53:52;11.00;;;6.10;;
7181;SDS011;3632;42.724;23.298;2023-04-24T00:56:19;10.57;;;6.17;;
7181;SDS011;3632;42.724;23.298;2023-04-24T00:58:47;13.23;;;6.13;;
7181;SDS011;3632;42.724;23.298;2023-04-24T01:01:14;10.47;;;5.77;;
7181;SDS011;3632;42.724;23.298;2023-04-24T01:03:41;11.53;;;5.50;;
7181;SDS011;3632;42.724;23.298;2023-04-24T01:06:08;9.97;;;5.70;;
7181;SDS011;3632;42.724;23.298;2023-04-24T01:08:36;10.20;;;6.20;;
7181;SDS011;3632;42.724;23.298;2023-04-24T01:11:04;13.40;;;6.27;;
7181;SDS011;3632;42.724;23.298;2023-04-24T01:13:31;19.27;;;8.93;;
7181;SDS011;3632;42.724;23.298;2023-04-24T01:16:00;31.40;;;14.37;;
7181;SDS011;3632;42.724;23.298;2023-04-24T01:18:27;33.10;;;14.40;;
7181;SDS011;3632;42.724;23.298;2023-04-24T01:20:56;21.87;;;10.73;;
7181;SDS011;3632;42.724;23.298;2023-04-24T01:23:25;14.23;;;7.30;;
7181;SDS011;3632;42.724;23.298;2023-04-24T01:25:52;11.83;;;6.70;;
7181;SDS011;3632;42.724;23.298;2023-04-24T01:28:19;10.13;;;6.17;;
7181;SDS011;3632;42.724;23.298;2023-04-24T01:30:46;10.63;;;6.07;;
7181;SDS011;3632;42.724;23.298;2023-04-24T01:33:13;10.93;;;6.47;;
7181;SDS011;3632;42.724;23.298;2023-04-24T01:35:40;9.73;;;6.40;;
7181;SDS011;3632;42.724;23.298;2023-04-24T01:38:07;10.00;;;6.23;;
7181;SDS011;3632;42.724;23.298;2023-04-24T01:40:35;10.23;;;5.20;;
7181;SDS011;3632;42.724;23.298;2023-04-24T01:43:02;10.83;;;6.10;;
7181;SDS011;3632;42.724;23.298;2023-04-24T01:45:28;17.30;;;9.23;;
7181;SDS011;3632;42.724;23.298;2023-04-24T01:47:55;15.70;;;9.33;;
7181;SDS011;3632;42.724;23.298;2023-04-24T01:50:22;17.23;;;8.80;;
7181;SDS011;3632;42.724;23.298;2023-04-24T01:52:49;11.97;;;8.60;;
7181;SDS011;3632;42.724;23.298;2023-04-24T01:55:16;10.43;;;7.43;;
7181;SDS011;3632;42.724;23.298;2023-04-24T01:57:45;12.83;;;8.13;;
7181;SDS011;3632;42.724;23.298;2023-04-24T02:00:12;11.77;;;8.60;;
7181;SDS011;3632;42.724;23.298;2023-04-24T02:02:39;11.57;;;8.23;;
7181;SDS011;3632;42.724;23.298;2023-04-24T02:05:07;9.03;;;7.27;;
7181;SDS011;3632;42.724;23.298;2023-04-24T02:07:34;12.73;;;7.57;;
7181;SDS011;3632;42.724;23.298;2023-04-24T02:10:01;13.40;;;9.57;;
7181;SDS011;3632;42.724;23.298;2023-04-24T02:12:29;14.07;;;10.47;;
7181;SDS011;3632;42.724;23.298;2023-04-24T02:14:57;18.40;;;11.53;;
7181;SDS011;3632;42.724;23.298;2023-04-24T02:17:24;14.77;;;10.20;;
7181;SDS011;3632;42.724;23.298;2023-04-24T02:19:51;11.67;;;8.77;;
7181;SDS011;3632;42.724;23.298;2023-04-24T02:22:18;9.27;;;7.83;;
7181;SDS011;3632;42.724;23.298;2023-04-24T02:24:44;9.73;;;7.63;;
7181;SDS011;3632;42.724;23.298;2023-04-24T02:27:11;9.03;;;8.13;;
7181;SDS011;3632;42.724;23.298;2023-04-24T02:29:38;11.27;;;8.30;;
7181;SDS011;3632;42.724;23.298;2023-04-24T02:32:06;12.93;;;8.80;;
7181;SDS011;3632;42.724;23.298;2023-04-24T02:34:36;10.43;;;8.60;;
7181;SDS011;3632;42.724;23.298;2023-04-24T02:37:03;11.43;;;8.83;;
7181;SDS011;3632;42.724;23.298;2023-04-24T02:39:29;12.63;;;9.00;;
7181;SDS011;3632;42.724;23.298;2023-04-24T02:41:56;11.90;;;8.73;;
7181;SDS011;3632;42.724;23.298;2023-04-24T02:44:23;15.00;;;10.70;;
7181;SDS011;3632;42.724;23.298;2023-04-24T02:46:49;13.97;;;8.80;;
7181;SDS011;3632;42.724;23.298;2023-04-24T02:49:17;14.43;;;9.47;;
7181;SDS011;3632;42.724;23.298;2023-04-24T02:51:44;13.47;;;9.00;;
7181;SDS011;3632;42.724;23.298;2023-04-24T02:54:11;14.17;;;8.93;;
7181;SDS011;3632;42.724;23.298;2023-04-24T02:56:38;10.37;;;8.23;;
7181;SDS011;3632;42.724;23.298;2023-04-24T02:59:04;12.00;;;8.40;;
7181;SDS011;3632;42.724;23.298;2023-04-24T03:01:31;11.10;;;8.20;;
7181;SDS011;3632;42.724;23.298;2023-04-24T03:03:58;8.80;;;7.57;;
7181;SDS011;3632;42.724;23.298;2023-04-24T03:06:26;19.90;;;12.27;;
7181;SDS011;3632;42.724;23.298;2023-04-24T03:08:53;21.60;;;12.23;;
7181;SDS011;3632;42.724;23.298;2023-04-24T03:11:20;11.17;;;8.80;;
7181;SDS011;3632;42.724;23.298;2023-04-24T03:13:47;13.27;;;7.90;;
7181;SDS011;3632;42.724;23.298;2023-04-24T03:16:13;10.57;;;7.87;;
7181;SDS011;3632;42.724;23.298;2023-04-24T03:18:40;10.90;;;8.97;;
7181;SDS011;3632;42.724;23.298;2023-04-24T03:21:07;12.23;;;9.67;;
7181;SDS011;3632;42.724;23.298;2023-04-24T03:23:35;14.80;;;9.27;;
7181;SDS011;3632;42.724;23.298;2023-04-24T03:26:02;12.83;;;9.53;;
7181;SDS011;3632;42.724;23.298;2023-04-24T03:28:29;11.23;;;8.57;;
7181;SDS011;3632;42.724;23.298;2023-04-24T03:30:55;14.73;;;8.90;;
7181;SDS011;3632;42.724;23.298;2023-04-24T03:33:22;26.20;;;15.70;;
7181;SDS011;3632;42.724;23.298;2023-04-24T03:35:49;37.87;;;20.03;;
7181;SDS011;3632;42.724;23.298;2023-04-24T03:38:16;25.07;;;12.10;;
7181;SDS011;3632;42.724;23.298;2023-04-24T03:40:44;19.37;;;11.37;;
7181;SDS011;3632;42.724;23.298;2023-04-24T03:43:11;11.63;;;9.30;;
7181;SDS011;3632;42.724;23.298;2023-04-24T03:45:37;14.80;;;9.87;;
7181;SDS011;3632;42.724;23.298;2023-04-24T03:48:04;17.30;;;9.43;;
7181;SDS011;3632;42.724;23.298;2023-04-24T03:50:31;11.73;;;9.40;;
7181;SDS011;3632;42.724;23.298;2023-04-24T03:52:58;14.00;;;9.10;;
7181;SDS011;3632;42.724;23.298;2023-04-24T03:55:27;20.70;;;12.10;;
7181;SDS011;3632;42.724;23.298;2023-04-24T03:57:55;17.97;;;11.80;;
7181;SDS011;3632;42.724;23.298;2023-04-24T04:00:21;16.77;;;10.37;;
7181;SDS011;3632;42.724;23.298;2023-04-24T04:02:48;18.83;;;10.60;;
7181;SDS011;3632;42.724;23.298;2023-04-24T04:05:15;14.47;;;9.90;;
7181;SDS011;3632;42.724;23.298;2023-04-24T04:07:42;15.70;;;11.07;;
7181;SDS011;3632;42.724;23.298;2023-04-24T04:10:09;20.87;;;12.07;;
7181;SDS011;3632;42.724;23.298;2023-04-24T04:12:36;19.70;;;13.80;;
7181;SDS011;3632;42.724;23.298;2023-04-24T04:15:05;21.57;;;14.73;;
7181;SDS011;3632;42.724;23.298;2023-04-24T04:17:38;23.47;;;14.13;;
7181;SDS011;3632;42.724;23.298;2023-04-24T04:20:05;25.20;;;14.47;;
7181;SDS011;3632;42.724;23.298;2023-04-24T04:22:35;20.27;;;12.87;;
7181;SDS011;3632;42.724;23.298;2023-04-24T04:25:01;17.83;;;11.03;;
7181;SDS011;3632;42.724;23.298;2023-04-24T04:27:29;17.07;;;10.80;;
7181;SDS011;3632;42.724;23.298;2023-04-24T04:29:57;18.20;;;10.70;;
7181;SDS011;3632;42.724;23.298;2023-04-24T04:32:25;16.33;;;10.47;;
7181;SDS011;3632;42.724;23.298;2023-04-24T04:34:52;13.33;;;10.27;;
7181;SDS011;3632;42.724;23.298;2023-04-24T04:37:19;16.30;;;10.13;;
7181;SDS011;3632;42.724;23.298;2023-04-24T04:39:46;13.60;;;9.97;;
7181;SDS011;3632;42.724;23.298;2023-04-24T04:42:12;16.57;;;10.10;;
7181;SDS011;3632;42.724;23.298;2023-04-24T04:44:40;14.43;;;9.67;;
7181;SDS011;3632;42.724;23.298;2023-04-24T04:47:07;18.67;;;9.10;;
7181;SDS011;3632;42.724;23.298;2023-04-24T04:49:37;13.83;;;8.53;;
7181;SDS011;3632;42.724;23.298;2023-04-24T04:52:04;13.57;;;8.33;;
7181;SDS011;3632;42.724;23.298;2023-04-24T04:54:31;16.73;;;9.40;;
7181;SDS011;3632;42.724;23.298;2023-04-24T04:56:58;16.57;;;9.63;;
7181;SDS011;3632;42.724;23.298;2023-04-24T04:59:25;16.93;;;9.30;;
7181;SDS011;3632;42.724;23.298;2023-04-24T05:01:52;17.80;;;9.70;;
7181;SDS011;3632;42.724;23.298;2023-04-24T05:04:19;18.97;;;9.50;;
7181;SDS011;3632;42.724;23.298;2023-04-24T05:06:47;18.90;;;9.23;;
7181;SDS011;3632;42.724;23.298;2023-04-24T05:09:16;15.00;;;8.23;;
7181;SDS011;3632;42.724;23.298;2023-04-24T05:11:43;14.93;;;8.40;;
7181;SDS011;3632;42.724;23.298;2023-04-24T05:14:10;19.00;;;9.63;;
7181;SDS011;3632;42.724;23.298;2023-04-24T05:16:37;16.60;;;10.10;;
7181;SDS011;3632;42.724;23.298;2023-04-24T05:19:05;14.37;;;9.47;;
7181;SDS011;3632;42.724;23.298;2023-04-24T05:21:32;17.87;;;9.13;;
7181;SDS011;3632;42.724;23.298;2023-04-24T05:24:00;17.57;;;9.13;;
7181;SDS011;3632;42.724;23.298;2023-04-24T05:26:26;12.43;;;8.77;;
7181;SDS011;3632;42.724;23.298;2023-04-24T05:28:53;12.83;;;8.77;;
7181;SDS011;3632;42.724;23.298;2023-04-24T05:31:20;13.50;;;9.50;;
7181;SDS011;3632;42.724;23.298;2023-04-24T05:33:47;14.87;;;9.23;;
7181;SDS011;3632;42.724;23.298;2023-04-24T05:36:14;15.30;;;9.43;;
7181;SDS011;3632;42.724;23.298;2023-04-24T05:38:41;21.63;;;11.73;;
7181;SDS011;3632;42.724;23.298;2023-04-24T05:41:09;19.87;;;12.20;;
7181;SDS011;3632;42.724;23.298;2023-04-24T05:43:35;21.07;;;12.37;;
7181;SDS011;3632;42.724;23.298;2023-04-24T05:46:02;15.90;;;9.23;;
7181;SDS011;3632;42.724;23.298;2023-04-24T05:48:29;15.77;;;10.07;;
7181;SDS011;3632;42.724;23.298;2023-04-24T05:50:56;16.17;;;10.77;;
7181;SDS011;3632;42.724;23.298;2023-04-24T05:53:22;16.73;;;10.73;;
7181;SDS011;3632;42.724;23.298;2023-04-24T05:55:49;15.47;;;11.13;;
7181;SDS011;3632;42.724;23.298;2023-04-24T05:58:17;13.80;;;10.33;;
7181;SDS011;3632;42.724;23.298;2023-04-24T06:00:45;13.43;;;10.27;;
7181;SDS011;3632;42.724;23.298;2023-04-24T06:03:12;16.23;;;10.13;;
7181;SDS011;3632;42.724;23.298;2023-04-24T06:05:38;11.90;;;9.47;;
7181;SDS011;3632;42.724;23.298;2023-04-24T06:08:05;15.20;;;9.43;;
7181;SDS011;3632;42.724;23.298;2023-04-24T06:10:32;12.43;;;8.80;;
7181;SDS011;3632;42.724;23.298;2023-04-24T06:12:59;11.87;;;8.73;;
7181;SDS011;3632;42.724;23.298;2023-04-24T06:15:28;14.20;;;9.73;;
7181;SDS011;3632;42.724;23.298;2023-04-24T06:17:56;9.93;;;8.10;;
7181;SDS011;3632;42.724;23.298;2023-04-24T06:20:23;11.67;;;8.07;;
7181;SDS011;3632;42.724;23.298;2023-04-24T06:22:53;9.43;;;5.77;;
7181;SDS011;3632;42.724;23.298;2023-04-24T06:25:20;10.83;;;6.50;;
7181;SDS011;3632;42.724;23.298;2023-04-24T06:27:47;9.17;;;6.40;;
7181;SDS011;3632;42.724;23.298;2023-04-24T06:30:14;10.53;;;7.03;;
7181;SDS011;3632;42.724;23.298;2023-04-24T06:32:42;8.37;;;6.57;;
7181;SDS011;3632;42.724;23.298;2023-04-24T06:35:09;12.87;;;7.33;;
7181;SDS011;3632;42.724;23.298;2023-04-24T06:37:37;13.63;;;7.83;;
7181;SDS011;3632;42.724;23.298;2023-04-24T06:40:05;9.73;;;6.60;;
7181;SDS011;3632;42.724;23.298;2023-04-24T06:42:33;10.53;;;7.67;;
7181;SDS011;3632;42.724;23.298;2023-04-24T06:45:00;10.27;;;7.03;;
7181;SDS011;3632;42.724;23.298;2023-04-24T06:47:26;11.37;;;6.83;;
7181;SDS011;3632;42.724;23.298;2023-04-24T06:49:54;12.90;;;7.20;;
7181;SDS011;3632;42.724;23.298;2023-04-24T06:52:22;10.57;;;6.60;;
7181;SDS011;3632;42.724;23.298;2023-04-24T06:54:49;12.53;;;7.63;;
7181;SDS011;3632;42.724;23.298;2023-04-24T06:57:15;14.23;;;8.10;;
7181;SDS011;3632;42.724;23.298;2023-04-24T06:59:42;10.70;;;7.13;;
7181;SDS011;3632;42.724;23.298;2023-04-24T07:02:09;10.80;;;7.40;;
7181;SDS011;3632;42.724;23.298;2023-04-24T07:04:36;16.50;;;7.40;;
7181;SDS011;3632;42.724;23.298;2023-04-24T07:07:04;11.07;;;7.87;;
7181;SDS011;3632;42.724;23.298;2023-04-24T07:09:31;10.57;;;7.53;;
7181;SDS011;3632;42.724;23.298;2023-04-24T07:12:00;13.30;;;8.50;;
7181;SDS011;3632;42.724;23.298;2023-04-24T07:14:27;14.10;;;8.20;;
7181;SDS011;3632;42.724;23.298;2023-04-24T07:16:53;13.70;;;7.90;;
7181;SDS011;3632;42.724;23.298;2023-04-24T07:19:22;10.40;;;8.53;;
7181;SDS011;3632;42.724;23.298;2023-04-24T07:21:48;10.73;;;8.30;;
7181;SDS011;3632;42.724;23.298;2023-04-24T07:24:17;9.80;;;7.57;;
7181;SDS011;3632;42.724;23.298;2023-04-24T07:26:43;13.30;;;9.03;;
7181;SDS011;3632;42.724;23.298;2023-04-24T07:29:11;13.43;;;8.33;;
7181;SDS011;3632;42.724;23.298;2023-04-24T07:31:38;10.03;;;8.10;;
7181;SDS011;3632;42.724;23.298;2023-04-24T07:34:06;14.50;;;7.63;;
7181;SDS011;3632;42.724;23.298;2023-04-24T07:36:32;11.37;;;7.37;;
7181;SDS011;3632;42.724;23.298;2023-04-24T07:38:59;12.40;;;7.10;;
7181;SDS011;3632;42.724;23.298;2023-04-24T07:41:27;13.17;;;11.33;;
7181;SDS011;3632;42.724;23.298;2023-04-24T07:43:54;11.87;;;8.40;;
7181;SDS011;3632;42.724;23.298;2023-04-24T07:46:21;11.73;;;9.30;;
7181;SDS011;3632;42.724;23.298;2023-04-24T07:48:48;13.57;;;9.53;;
7181;SDS011;3632;42.724;23.298;2023-04-24T07:51:15;17.93;;;12.30;;
7181;SDS011;3632;42.724;23.298;2023-04-24T07:53:42;13.00;;;8.83;;
7181;SDS011;3632;42.724;23.298;2023-04-24T07:56:09;7.97;;;6.80;;
7181;SDS011;3632;42.724;23.298;2023-04-24T07:58:37;13.30;;;9.43;;
7181;SDS011;3632;42.724;23.298;2023-04-24T08:01:04;11.13;;;8.13;;
7181;SDS011;3632;42.724;23.298;2023-04-24T08:03:31;10.80;;;7.13;;
7181;SDS011;3632;42.724;23.298;2023-04-24T08:05:57;8.93;;;7.83;;
7181;SDS011;3632;42.724;23.298;2023-04-24T08:08:24;12.50;;;9.70;;
7181;SDS011;3632;42.724;23.298;2023-04-24T08:10:51;9.93;;;6.93;;
7181;SDS011;3632;42.724;23.298;2023-04-24T08:13:18;11.60;;;7.87;;
7181;SDS011;3632;42.724;23.298;2023-04-24T08:15:46;10.87;;;7.30;;
7181;SDS011;3632;42.724;23.298;2023-04-24T08:18:13;12.27;;;7.10;;
7181;SDS011;3632;42.724;23.298;2023-04-24T08:20:40;12.07;;;7.00;;
7181;SDS011;3632;42.724;23.298;2023-04-24T08:23:07;10.73;;;8.00;;
7181;SDS011;3632;42.724;23.298;2023-04-24T08:25:34;12.90;;;6.50;;
7181;SDS011;3632;42.724;23.298;2023-04-24T08:28:01;10.87;;;6.43;;
7181;SDS011;3632;42.724;23.298;2023-04-24T08:30:29;11.93;;;6.93;;
7181;SDS011;3632;42.724;23.298;2023-04-24T08:32:57;10.67;;;6.43;;
7181;SDS011;3632;42.724;23.298;2023-04-24T08:35:24;11.90;;;8.73;;
7181;SDS011;3632;42.724;23.298;2023-04-24T08:37:51;15.00;;;8.67;;
7181;SDS011;3632;42.724;23.298;2023-04-24T08:40:20;12.70;;;8.90;;
7181;SDS011;3632;42.724;23.298;2023-04-24T08:42:53;14.67;;;10.70;;
7181;SDS011;3632;42.724;23.298;2023-04-24T08:45:21;9.70;;;7.27;;
7181;SDS011;3632;42.724;23.298;2023-04-24T08:47:48;11.87;;;8.80;;
7181;SDS011;3632;42.724;23.298;2023-04-24T08:50:16;8.90;;;6.50;;
7181;SDS011;3632;42.724;23.298;2023-04-24T08:52:43;10.53;;;8.20;;
7181;SDS011;3632;42.724;23.298;2023-04-24T08:55:10;9.53;;;6.07;;
7181;SDS011;3632;42.724;23.298;2023-04-24T08:57:37;9.37;;;5.63;;
7181;SDS011;3632;42.724;23.298;2023-04-24T09:00:05;9.23;;;6.03;;
7181;SDS011;3632;42.724;23.298;2023-04-24T09:02:33;9.60;;;7.37;;
7181;SDS011;3632;42.724;23.298;2023-04-24T09:05:00;8.97;;;6.33;;
7181;SDS011;3632;42.724;23.298;2023-04-24T09:07:29;16.30;;;10.60;;
7181;SDS011;3632;42.724;23.298;2023-04-24T09:10:00;10.07;;;5.80;;
7181;SDS011;3632;42.724;23.298;2023-04-24T09:12:27;9.57;;;5.87;;
7181;SDS011;3632;42.724;23.298;2023-04-24T09:14:54;8.60;;;5.70;;
7181;SDS011;3632;42.724;23.298;2023-04-24T09:17:22;8.60;;;5.40;;
7181;SDS011;3632;42.724;23.298;2023-04-24T09:19:52;7.53;;;5.70;;
7181;SDS011;3632;42.724;23.298;2023-04-24T09:22:21;8.20;;;5.50;;
7181;SDS011;3632;42.724;23.298;2023-04-24T09:24:49;12.93;;;8.50;;
7181;SDS011;3632;42.724;23.298;2023-04-24T09:27:26;9.93;;;5.60;;
7181;SDS011;3632;42.724;23.298;2023-04-24T09:29:54;12.47;;;6.37;;
7181;SDS011;3632;42.724;23.298;2023-04-24T09:32:22;7.40;;;6.03;;
7181;SDS011;3632;42.724;23.298;2023-04-24T09:35:04;8.60;;;5.17;;
7181;SDS011;3632;42.724;23.298;2023-04-24T09:37:34;7.00;;;5.10;;
7181;SDS011;3632;42.724;23.298;2023-04-24T09:40:10;8.50;;;5.23;;
7181;SDS011;3632;42.724;23.298;2023-04-24T09:42:38;10.90;;;7.83;;
7181;SDS011;3632;42.724;23.298;2023-04-24T09:45:08;9.73;;;8.27;;
7181;SDS011;3632;42.724;23.298;2023-04-24T09:47:36;8.73;;;6.00;;
7181;SDS011;3632;42.724;23.298;2023-04-24T09:50:08;8.47;;;5.57;;
7181;SDS011;3632;42.724;23.298;2023-04-24T09:52:39;10.50;;;6.87;;
7181;SDS011;3632;42.724;23.298;2023-04-24T09:55:13;11.27;;;5.30;;
7181;SDS011;3632;42.724;23.298;2023-04-24T09:57:49;6.13;;;4.83;;
7181;SDS011;3632;42.724;23.298;2023-04-24T10:00:23;8.93;;;5.37;;
7181;SDS011;3632;42.724;23.298;2023-04-24T10:02:55;8.30;;;4.87;;
7181;SDS011;3632;42.724;23.298;2023-04-24T10:05:24;6.13;;;4.40;;
7181;SDS011;3632;42.724;23.298;2023-04-24T10:07:55;6.57;;;4.80;;
7181;SDS011;3632;42.724;23.298;2023-04-24T10:10:24;11.70;;;6.40;;
7181;SDS011;3632;42.724;23.298;2023-04-24T10:12:52;10.70;;;6.67;;
7181;SDS011;3632;42.724;23.298;2023-04-24T10:15:21;10.93;;;6.43;;
7181;SDS011;3632;42.724;23.298;2023-04-24T10:17:48;6.80;;;5.77;;
7181;SDS011;3632;42.724;23.298;2023-04-24T10:20:22;7.73;;;6.10;;
7181;SDS011;3632;42.724;23.298;2023-04-24T10:22:50;8.93;;;5.37;;
7181;SDS011;3632;42.724;23.298;2023-04-24T10:25:19;7.00;;;5.30;;
7181;SDS011;3632;42.724;23.298;2023-04-24T10:27:49;14.13;;;7.97;;
7181;SDS011;3632;42.724;23.298;2023-04-24T10:30:16;10.33;;;7.07;;
7181;SDS011;3632;42.724;23.298;2023-04-24T10:32:44;8.90;;;3.97;;
7181;SDS011;3632;42.724;23.298;2023-04-24T10:35:11;5.87;;;4.10;;
7181;SDS011;3632;42.724;23.298;2023-04-24T10:37:40;10.80;;;4.77;;
7181;SDS011;3632;42.724;23.298;2023-04-24T10:40:09;6.80;;;4.20;;
7181;SDS011;3632;42.724;23.298;2023-04-24T10:42:39;10.30;;;7.30;;
7181;SDS011;3632;42.724;23.298;2023-04-24T10:45:17;7.90;;;5.00;;
7181;SDS011;3632;42.724;23.298;2023-04-24T10:47:51;11.17;;;6.73;;
7181;SDS011;3632;42.724;23.298;2023-04-24T10:50:18;9.77;;;7.33;;
7181;SDS011;3632;42.724;23.298;2023-04-24T10:52:45;9.37;;;4.87;;
7181;SDS011;3632;42.724;23.298;2023-04-24T10:55:13;4.43;;;4.00;;
7181;SDS011;3632;42.724;23.298;2023-04-24T10:58:00;7.07;;;4.60;;
7181;SDS011;3632;42.724;23.298;2023-04-24T11:00:30;11.43;;;7.60;;
7181;SDS011;3632;42.724;23.298;2023-04-24T11:02:56;17.77;;;10.97;;
7181;SDS011;3632;42.724;23.298;2023-04-24T11:05:49;7.40;;;4.73;;
7181;SDS011;3632;42.724;23.298;2023-04-24T11:08:23;9.20;;;5.00;;
7181;SDS011;3632;42.724;23.298;2023-04-24T11:10:56;14.30;;;10.50;;
7181;SDS011;3632;42.724;23.298;2023-04-24T11:13:31;8.03;;;5.73;;
7181;SDS011;3632;42.724;23.298;2023-04-24T11:16:36;7.10;;;4.40;;
7181;SDS011;3632;42.724;23.298;2023-04-24T11:19:09;6.33;;;4.80;;
7181;SDS011;3632;42.724;23.298;2023-04-24T11:21:45;17.10;;;4.90;;
7181;SDS011;3632;42.724;23.298;2023-04-24T11:24:26;21.03;;;5.77;;
7181;SDS011;3632;42.724;23.298;2023-04-24T11:26:56;10.33;;;6.20;;
7181;SDS011;3632;42.724;23.298;2023-04-24T11:29:38;5.47;;;4.30;;
7181;SDS011;3632;42.724;23.298;2023-04-24T11:32:17;4.90;;;4.50;;
7181;SDS011;3632;42.724;23.298;2023-04-24T11:34:54;7.57;;;4.73;;
7181;SDS011;3632;42.724;23.298;2023-04-24T11:37:22;10.13;;;6.73;;
7181;SDS011;3632;42.724;23.298;2023-04-24T11:39:50;9.37;;;4.93;;
7181;SDS011;3632;42.724;23.298;2023-04-24T11:42:18;5.60;;;4.43;;
7181;SDS011;3632;42.724;23.298;2023-04-24T11:44:47;7.40;;;4.97;;
7181;SDS011;3632;42.724;23.298;2023-04-24T11:47:16;9.53;;;5.03;;
7181;SDS011;3632;42.724;23.298;2023-04-24T11:49:43;4.93;;;4.40;;
7181;SDS011;3632;42.724;23.298;2023-04-24T11:52:11;7.97;;;4.70;;
7181;SDS011;3632;42.724;23.298;2023-04-24T11:54:46;4.03;;;3.63;;
7181;SDS011;3632;42.724;23.298;2023-04-24T11:57:14;4.80;;;3.80;;
7181;SDS011;3632;42.724;23.298;2023-04-24T11:59:41;5.93;;;3.67;;
7181;SDS011;3632;42.724;23.298;2023-04-24T12:02:08;4.30;;;3.90;;
7181;SDS011;3632;42.724;23.298;2023-04-24T12:04:40;4.20;;;3.60;;
7181;SDS011;3632;42.724;23.298;2023-04-24T12:07:07;4.53;;;3.90;;
7181;SDS011;3632;42.724;23.298;2023-04-24T12:09:41;4.43;;;4.00;;
7181;SDS011;3632;42.724;23.298;2023-04-24T12:12:09;5.77;;;4.80;;
7181;SDS011;3632;42.724;23.298;2023-04-24T12:17:25;7.80;;;5.77;;
7181;SDS011;3632;42.724;23.298;2023-04-24T12:19:58;6.97;;;6.17;;
7181;SDS011;3632;42.724;23.298;2023-04-24T12:22:27;7.50;;;6.80;;
7181;SDS011;3632;42.724;23.298;2023-04-24T12:25:00;12.13;;;8.30;;
7181;SDS011;3632;42.724;23.298;2023-04-24T12:27:29;5.33;;;4.80;;
7181;SDS011;3632;42.724;23.298;2023-04-24T12:30:00;10.70;;;8.53;;
7181;SDS011;3632;42.724;23.298;2023-04-24T12:32:28;6.40;;;5.33;;
7181;SDS011;3632;42.724;23.298;2023-04-24T12:34:54;6.73;;;6.13;;
7181;SDS011;3632;42.724;23.298;2023-04-24T12:37:23;13.17;;;10.80;;
7181;SDS011;3632;42.724;23.298;2023-04-24T12:39:58;7.97;;;7.10;;
7181;SDS011;3632;42.724;23.298;2023-04-24T12:42:26;11.57;;;9.03;;
7181;SDS011;3632;42.724;23.298;2023-04-24T12:44:56;10.87;;;4.20;;
7181;SDS011;3632;42.724;23.298;2023-04-24T12:47:24;7.87;;;5.93;;
7181;SDS011;3632;42.724;23.298;2023-04-24T12:49:51;5.67;;;4.40;;
7181;SDS011;3632;42.724;23.298;2023-04-24T12:52:18;7.20;;;4.23;;
7181;SDS011;3632;42.724;23.298;2023-04-24T12:54:47;7.77;;;5.17;;
7181;SDS011;3632;42.724;23.298;2023-04-24T12:57:14;7.17;;;6.47;;
7181;SDS011;3632;42.724;23.298;2023-04-24T12:59:41;6.77;;;5.10;;
7181;SDS011;3632;42.724;23.298;2023-04-24T13:02:08;7.80;;;4.90;;
7181;SDS011;3632;42.724;23.298;2023-04-24T13:04:35;4.27;;;3.43;;
7181;SDS011;3632;42.724;23.298;2023-04-24T13:07:02;6.20;;;3.23;;
7181;SDS011;3632;42.724;23.298;2023-04-24T13:09:29;5.47;;;3.40;;
7181;SDS011;3632;42.724;23.298;2023-04-24T13:11:58;9.77;;;7.20;;
7181;SDS011;3632;42.724;23.298;2023-04-24T13:14:26;7.43;;;5.87;;
7181;SDS011;3632;42.724;23.298;2023-04-24T13:16:52;6.97;;;5.90;;
7181;SDS011;3632;42.724;23.298;2023-04-24T13:19:19;4.73;;;3.70;;
7181;SDS011;3632;42.724;23.298;2023-04-24T13:21:46;4.63;;;3.40;;
7181;SDS011;3632;42.724;23.298;2023-04-24T13:24:13;4.60;;;3.73;;
7181;SDS011;3632;42.724;23.298;2023-04-24T13:26:41;6.07;;;3.40;;
7181;SDS011;3632;42.724;23.298;2023-04-24T13:29:09;5.37;;;4.60;;
7181;SDS011;3632;42.724;23.298;2023-04-24T13:31:36;3.47;;;3.13;;
7181;SDS011;3632;42.724;23.298;2023-04-24T13:34:03;4.03;;;3.17;;
7181;SDS011;3632;42.724;23.298;2023-04-24T13:36:30;5.23;;;3.47;;
7181;SDS011;3632;42.724;23.298;2023-04-24T13:38:56;10.40;;;6.70;;
7181;SDS011;3632;42.724;23.298;2023-04-24T13:41:23;6.00;;;4.10;;
7181;SDS011;3632;42.724;23.298;2023-04-24T13:43:50;5.17;;;3.80;;
7181;SDS011;3632;42.724;23.298;2023-04-24T13:46:18;9.17;;;6.23;;
7181;SDS011;3632;42.724;23.298;2023-04-24T13:48:45;7.30;;;5.67;;
7181;SDS011;3632;42.724;23.298;2023-04-24T13:51:14;4.67;;;4.27;;
7181;SDS011;3632;42.724;23.298;2023-04-24T13:53:41;3.90;;;3.50;;
7181;SDS011;3632;42.724;23.298;2023-04-24T13:56:08;7.13;;;4.33;;
7181;SDS011;3632;42.724;23.298;2023-04-24T13:58:35;4.83;;;3.87;;
7181;SDS011;3632;42.724;23.298;2023-04-24T14:01:04;6.90;;;4.20;;
7181;SDS011;3632;42.724;23.298;2023-04-24T14:03:34;6.10;;;3.80;;
7181;SDS011;3632;42.724;23.298;2023-04-24T14:06:03;4.30;;;2.90;;
7181;SDS011;3632;42.724;23.298;2023-04-24T14:08:31;4.20;;;3.33;;
7181;SDS011;3632;42.724;23.298;2023-04-24T14:10:58;3.40;;;3.03;;
7181;SDS011;3632;42.724;23.298;2023-04-24T14:13:25;5.57;;;3.70;;
7181;SDS011;3632;42.724;23.298;2023-04-24T14:15:53;4.40;;;3.40;;
7181;SDS011;3632;42.724;23.298;2023-04-24T14:18:20;7.60;;;3.57;;
7181;SDS011;3632;42.724;23.298;2023-04-24T14:20:49;5.53;;;3.17;;
7181;SDS011;3632;42.724;23.298;2023-04-24T14:23:15;3.77;;;2.90;;
7181;SDS011;3632;42.724;23.298;2023-04-24T14:25:43;3.97;;;3.47;;
7181;SDS011;3632;42.724;23.298;2023-04-24T14:28:11;3.47;;;2.80;;
7181;SDS011;3632;42.724;23.298;2023-04-24T14:30:38;6.13;;;4.20;;
7181;SDS011;3632;42.724;23.298;2023-04-24T14:33:06;6.33;;;3.40;;
7181;SDS011;3632;42.724;23.298;2023-04-24T14:35:33;5.40;;;3.53;;
7181;SDS011;3632;42.724;23.298;2023-04-24T14:38:02;4.83;;;3.33;;
7181;SDS011;3632;42.724;23.298;2023-04-24T14:40:29;4.07;;;3.40;;
7181;SDS011;3632;42.724;23.298;2023-04-24T14:42:57;3.90;;;3.37;;
7181;SDS011;3632;42.724;23.298;2023-04-24T14:45:25;4.67;;;3.43;;
7181;SDS011;3632;42.724;23.298;2023-04-24T14:47:53;5.90;;;3.63;;
7181;SDS011;3632;42.724;23.298;2023-04-24T14:50:33;6.03;;;3.40;;
7181;SDS011;3632;42.724;23.298;2023-04-24T14:53:04;5.97;;;3.57;;
7181;SDS011;3632;42.724;23.298;2023-04-24T14:55:31;8.83;;;3.43;;
7181;SDS011;3632;42.724;23.298;2023-04-24T14:58:02;4.90;;;4.37;;
7181;SDS011;3632;42.724;23.298;2023-04-24T15:00:30;4.20;;;3.80;;